Time;durP1;ratioP1;P1;durP2;ratioP2;P2;SDS_P1;SDS_P2;PMS_P1;PMS_P2;Temp;Humidity;BMP_temperature;BMP_pressure;BME280_temperature;BME280_humidity;BME280_pressure;Samples;Min_cycle;Max_cycle;Signal;HPM_P1;HPM_P2
2021/05/27 00:00:17;;;;;;;1.58;1.27;;;16.10;72.30;;;;;;5113580;28;20139;-55
2021/05/27 00:02:44;;;;;;;1.65;1.00;;;16.10;72.30;;;;;;5113662;28;20040;-52
2021/05/27 00:05:11;;;;;;;1.20;1.10;;;16.00;72.20;;;;;;5113639;28;20050;-53
2021/05/27 00:07:37;;;;;;;1.75;1.05;;;16.00;72.20;;;;;;5113186;28;20495;-52
2021/05/27 00:10:06;;;;;;;1.55;0.80;;;16.00;72.20;;;;;;5113204;28;20045;-51
2021/05/27 00:12:31;;;;;;;1.40;1.20;;;16.00;72.20;;;;;;5113677;28;20043;-52
2021/05/27 00:14:57;;;;;;;0.80;0.80;;;16.00;72.20;;;;;;5113515;28;20495;-53
2021/05/27 00:17:23;;;;;;;1.30;1.00;;;16.10;72.30;;;;;;5113498;28;20325;-55
2021/05/27 00:19:49;;;;;;;0.80;0.80;;;16.00;72.20;;;;;;5112997;28;20147;-54
2021/05/27 00:22:14;;;;;;;1.40;0.93;;;16.00;72.30;;;;;;5112962;28;20043;-53
2021/05/27 00:24:40;;;;;;;1.48;0.95;;;16.00;72.30;;;;;;5113483;28;20473;-53
2021/05/27 00:27:07;;;;;;;1.58;1.15;;;16.00;72.20;;;;;;5113458;28;20127;-52
2021/05/27 00:29:33;;;;;;;0.98;0.90;;;16.00;72.30;;;;;;5112935;28;20059;-56
2021/05/27 00:31:59;;;;;;;1.63;0.90;;;16.00;72.30;;;;;;5092907;28;20098;-53
2021/05/27 00:34:30;;;;;;;0.90;0.82;;;16.00;72.30;;;;;;5092748;28;20044;-46
2021/05/27 00:36:56;;;;;;;2.00;1.30;;;16.00;72.90;;;;;;5092727;28;20058;-55
2021/05/27 00:39:22;;;;;;;1.15;0.93;;;16.00;72.30;;;;;;5092409;28;20118;-48
2021/05/27 00:41:48;;;;;;;1.92;1.13;;;16.00;72.30;;;;;;5107874;28;20130;-55
2021/05/27 00:44:30;;;;;;;0.88;0.88;;;16.00;72.30;;;;;;5112348;28;20147;-51
2021/05/27 00:46:58;;;;;;;1.83;1.17;;;15.90;72.20;;;;;;5113019;28;20058;-44
2021/05/27 00:49:24;;;;;;;1.23;1.10;;;16.00;72.30;;;;;;5112793;28;20055;-53
2021/05/27 00:51:51;;;;;;;1.60;1.08;;;16.00;72.30;;;;;;5112358;28;20066;-43
2021/05/27 00:54:18;;;;;;;1.70;1.10;;;16.00;72.30;;;;;;5112597;28;20104;-51
2021/05/27 00:56:47;;;;;;;2.15;1.35;;;16.00;72.30;;;;;;5112946;28;20058;-53
2021/05/27 00:59:13;;;;;;;1.15;1.05;;;16.00;72.30;;;;;;5112691;28;20077;-43
2021/05/27 01:01:39;;;;;;;1.63;1.00;;;16.00;72.40;;;;;;5112490;28;20054;-51
2021/05/27 01:04:06;;;;;;;1.30;0.95;;;16.00;72.30;;;;;;5112829;28;20047;-43
2021/05/27 01:06:32;;;;;;;1.55;1.08;;;16.00;72.30;;;;;;5112638;28;20067;-48
2021/05/27 01:08:58;;;;;;;0.88;0.80;;;16.00;72.30;;;;;;5112684;28;20044;-52
2021/05/27 01:11:25;;;;;;;1.67;0.90;;;16.00;72.40;;;;;;5112416;28;20086;-40
2021/05/27 01:13:51;;;;;;;1.58;1.10;;;16.00;72.30;;;;;;5112812;28;20044;-41
2021/05/27 01:16:20;;;;;;;1.85;0.98;;;16.00;72.30;;;;;;5113113;28;20112;-57
2021/05/27 01:18:47;;;;;;;1.05;0.95;;;16.00;72.30;;;;;;5113251;28;20047;-55
2021/05/27 01:21:13;;;;;;;1.20;1.08;;;16.00;72.30;;;;;;5112874;28;20075;-55
2021/05/27 01:23:39;;;;;;;1.13;1.02;;;16.00;72.30;;;;;;5112345;28;20462;-52
2021/05/27 01:26:06;;;;;;;2.30;1.10;;;16.00;72.40;;;;;;5112390;28;20081;-52
2021/05/27 01:28:35;;;;;;;1.30;1.02;;;16.00;72.40;;;;;;5112854;28;20075;-54
2021/05/27 01:31:02;;;;;;;0.95;0.82;;;16.00;72.40;;;;;;5112601;28;20071;-53
2021/05/27 01:33:29;;;;;;;1.33;1.05;;;16.00;72.40;;;;;;5112272;28;20043;-53
2021/05/27 01:35:56;;;;;;;1.23;1.08;;;16.00;72.40;;;;;;5112768;28;20138;-54
2021/05/27 01:38:24;;;;;;;0.80;0.80;;;16.00;72.40;;;;;;5112616;28;20368;-53
2021/05/27 01:40:51;;;;;;;1.50;0.98;;;16.00;72.30;;;;;;5111764;28;20473;-55
2021/05/27 01:43:19;;;;;;;1.30;0.90;;;16.00;72.40;;;;;;5111991;28;20043;-50
2021/05/27 01:45:45;;;;;;;1.55;1.02;;;16.00;72.40;;;;;;5114124;28;20120;-53
2021/05/27 01:48:11;;;;;;;1.25;1.05;;;16.00;72.40;;;;;;5115780;28;20395;-53
2021/05/27 01:50:41;;;;;;;1.33;0.93;;;16.00;72.40;;;;;;5116341;28;20067;-54
2021/05/27 01:53:08;;;;;;;1.70;0.90;;;16.00;72.40;;;;;;5135838;27;20062;-54
2021/05/27 01:55:34;;;;;;;1.95;0.95;;;16.00;72.40;;;;;;5134473;27;20048;-54
2021/05/27 01:58:00;;;;;;;1.02;0.98;;;15.90;72.30;;;;;;5136799;27;20469;-52
2021/05/27 02:00:28;;;;;;;1.67;1.13;;;15.90;72.30;;;;;;5136681;27;20150;-56
2021/05/27 02:02:55;;;;;;;1.40;1.08;;;15.90;72.40;;;;;;5136778;27;20058;-53
2021/05/27 02:05:21;;;;;;;1.50;1.05;;;16.00;72.40;;;;;;5134750;27;20055;-52
2021/05/27 02:07:47;;;;;;;2.28;1.40;;;16.00;72.40;;;;;;5136591;27;20133;-56
2021/05/27 02:10:13;;;;;;;1.17;1.08;;;16.00;72.40;;;;;;5136477;27;20543;-56
2021/05/27 02:12:39;;;;;;;2.60;1.10;;;16.00;72.40;;;;;;5136256;27;20050;-56
2021/05/27 02:15:06;;;;;;;1.88;1.10;;;15.90;72.30;;;;;;5134522;27;20130;-42
2021/05/27 02:17:32;;;;;;;1.05;0.90;;;15.90;72.30;;;;;;5136426;27;20464;-56
2021/05/27 02:19:59;;;;;;;1.40;0.95;;;16.00;72.40;;;;;;5136135;27;20047;-41
2021/05/27 02:22:25;;;;;;;2.45;1.35;;;16.00;72.40;;;;;;5136356;27;20075;-48
2021/05/27 02:24:50;;;;;;;2.00;1.10;;;16.00;72.40;;;;;;5136424;27;20470;-56
2021/05/27 02:27:17;;;;;;;1.65;1.40;;;16.00;72.40;;;;;;5134192;27;20411;-55
2021/05/27 02:29:44;;;;;;;2.55;1.25;;;16.00;72.40;;;;;;5136301;27;20448;-41
2021/05/27 02:32:10;;;;;;;1.67;1.00;;;16.00;72.40;;;;;;5136158;27;20066;-56
2021/05/27 02:34:36;;;;;;;1.55;1.02;;;16.00;72.40;;;;;;5135937;27;20071;-55
2021/05/27 02:37:02;;;;;;;1.52;1.00;;;16.00;72.40;;;;;;5134231;27;20067;-56
2021/05/27 02:39:28;;;;;;;1.40;1.00;;;16.00;72.40;;;;;;5136075;27;20180;-56
2021/05/27 02:41:54;;;;;;;1.65;1.05;;;16.00;72.40;;;;;;5135619;27;20585;-45
2021/05/27 02:44:19;;;;;;;1.30;1.13;;;16.00;72.50;;;;;;5135850;27;20047;-56
2021/05/27 02:46:45;;;;;;;1.17;0.95;;;16.00;72.40;;;;;;5135446;27;20081;-49
2021/05/27 02:49:11;;;;;;;1.33;1.02;;;16.00;72.40;;;;;;5129855;27;20058;-45
2021/05/27 02:51:37;;;;;;;2.10;1.10;;;16.00;72.40;;;;;;5115104;27;20078;-55
2021/05/27 02:54:04;;;;;;;1.60;1.00;;;15.90;72.40;;;;;;5115122;28;20403;-53
2021/05/27 02:56:30;;;;;;;2.28;1.20;;;16.00;72.40;;;;;;5114238;28;20115;-46
2021/05/27 02:58:55;;;;;;;1.77;0.88;;;15.80;72.30;;;;;;5114412;28;20142;-50
2021/05/27 03:01:21;;;;;;;1.48;1.00;;;15.90;72.40;;;;;;5114749;28;20044;-46
2021/05/27 03:03:47;;;;;;;1.90;1.20;;;15.90;72.40;;;;;;5114922;28;20077;-46
2021/05/27 03:06:13;;;;;;;1.63;0.95;;;15.90;72.40;;;;;;5114894;28;20048;-56
2021/05/27 03:08:42;;;;;;;1.30;0.80;;;16.00;72.50;;;;;;5114535;28;20036;-46
2021/05/27 03:11:11;;;;;;;2.75;1.00;;;16.00;72.50;;;;;;5114809;28;20530;-56
2021/05/27 03:13:37;;;;;;;1.73;1.10;;;16.00;72.50;;;;;;5114582;28;20051;-43
2021/05/27 03:16:03;;;;;;;1.83;1.38;;;15.90;72.40;;;;;;5114781;28;20048;-52
2021/05/27 03:18:30;;;;;;;2.25;1.17;;;15.90;72.40;;;;;;5114753;28;20557;-47
2021/05/27 03:20:59;;;;;;;1.15;0.85;;;16.00;72.50;;;;;;5114087;28;20148;-52
2021/05/27 03:23:25;;;;;;;1.10;1.00;;;16.00;72.50;;;;;;5114643;28;20479;-44
2021/05/27 03:25:51;;;;;;;1.52;1.10;;;15.90;72.50;;;;;;5114195;28;20039;-45
2021/05/27 03:28:17;;;;;;;1.50;1.30;;;15.90;72.40;;;;;;5114187;28;20063;-52
2021/05/27 03:30:43;;;;;;;1.52;0.98;;;16.00;72.50;;;;;;5113197;28;20415;-40
2021/05/27 03:33:10;;;;;;;1.67;1.17;;;15.90;72.40;;;;;;5113849;28;20119;-45
2021/05/27 03:35:35;;;;;;;1.63;1.10;;;15.90;72.40;;;;;;5113747;28;20046;-42
2021/05/27 03:38:01;;;;;;;1.35;1.20;;;15.90;72.40;;;;;;5113503;28;20400;-44
2021/05/27 03:40:27;;;;;;;1.40;0.90;;;16.00;72.50;;;;;;5113856;28;20062;-42
2021/05/27 03:42:55;;;;;;;1.33;0.90;;;15.90;72.40;;;;;;5114442;28;20093;-54
2021/05/27 03:45:22;;;;;;;0.80;0.80;;;15.90;72.40;;;;;;5113932;28;20101;-56
2021/05/27 03:47:48;;;;;;;1.55;1.13;;;15.90;72.40;;;;;;5114057;28;20048;-54
2021/05/27 03:50:16;;;;;;;1.60;1.05;;;15.90;72.40;;;;;;5114021;28;20051;-56
2021/05/27 03:52:42;;;;;;;1.63;1.20;;;16.00;73.10;;;;;;5113359;28;20055;-55
2021/05/27 03:55:13;;;;;;;1.02;0.93;;;15.90;72.40;;;;;;5113865;28;20048;-56
2021/05/27 03:57:39;;;;;;;1.60;1.10;;;16.00;72.50;;;;;;5113762;28;20048;-56
2021/05/27 04:02:56;;;;;;;1.63;1.10;;;15.90;72.40;;;;;;5113250;28;20067;-57
2021/05/27 04:08:07;;;;;;;1.42;1.13;;;15.90;72.50;;;;;;5113501;28;20055;-54
2021/05/27 04:10:34;;;;;;;1.15;1.00;;;15.90;72.40;;;;;;5113714;28;20046;-56
2021/05/27 04:13:00;;;;;;;1.42;1.02;;;15.90;72.40;;;;;;5113317;28;20047;-56
2021/05/27 04:15:29;;;;;;;1.30;1.20;;;15.90;72.40;;;;;;5113132;28;20054;-54
2021/05/27 04:18:02;;;;;;;1.58;1.02;;;15.90;72.50;;;;;;5113511;28;20059;-56
2021/05/27 04:20:33;;;;;;;2.25;1.20;;;15.90;72.50;;;;;;5113476;28;20039;-56
2021/05/27 04:23:00;;;;;;;1.30;1.13;;;15.90;72.50;;;;;;5112946;28;20044;-55
2021/05/27 04:25:26;;;;;;;2.00;1.20;;;15.90;72.50;;;;;;5113510;28;20060;-55
2021/05/27 04:27:54;;;;;;;1.33;0.98;;;15.90;72.50;;;;;;5113158;28;20471;-54
2021/05/27 04:30:21;;;;;;;2.45;1.15;;;15.90;72.50;;;;;;5112903;28;20526;-55
2021/05/27 04:33:06;;;;;;;1.40;1.13;;;15.90;72.50;;;;;;5113310;28;20047;-56
2021/05/27 04:35:39;;;;;;;1.02;0.90;;;15.90;72.50;;;;;;5113049;28;20170;-56
2021/05/27 04:38:10;;;;;;;1.52;0.98;;;15.90;72.50;;;;;;5113077;28;20544;-40
2021/05/27 04:40:41;;;;;;;1.17;1.00;;;15.90;72.50;;;;;;5112860;28;20096;-41
2021/05/27 04:43:07;;;;;;;1.23;1.10;;;15.90;72.50;;;;;;5113262;28;20116;-40
2021/05/27 04:45:34;;;;;;;0.95;0.85;;;15.90;72.50;;;;;;5112694;28;20059;-41
2021/05/27 04:48:04;;;;;;;1.20;1.02;;;15.90;72.50;;;;;;5112780;28;20052;-41
2021/05/27 04:50:31;;;;;;;1.25;1.10;;;15.80;72.50;;;;;;5112993;28;20126;-40
2021/05/27 04:52:57;;;;;;;1.30;1.20;;;15.90;72.60;;;;;;5112654;28;20071;-38
2021/05/27 04:55:23;;;;;;;1.50;1.00;;;15.90;72.50;;;;;;5112410;28;20035;-41
2021/05/27 04:57:49;;;;;;;1.60;1.38;;;15.90;72.60;;;;;;5112418;28;20094;-40
2021/05/27 05:00:18;;;;;;;1.30;1.10;;;15.90;72.60;;;;;;5112809;28;20506;-44
2021/05/27 05:02:44;;;;;;;2.08;1.30;;;15.90;72.60;;;;;;5112465;28;20059;-42
2021/05/27 05:05:13;;;;;;;3.00;1.38;;;15.90;72.60;;;;;;5112582;28;20055;-43
2021/05/27 05:07:39;;;;;;;1.52;1.20;;;15.90;72.60;;;;;;5112179;28;20039;-40
2021/05/27 05:10:08;;;;;;;1.52;1.02;;;15.90;72.60;;;;;;5112625;28;20039;-41
2021/05/27 05:12:44;;;;;;;1.33;1.10;;;15.90;72.60;;;;;;5112631;28;20040;-40
2021/05/27 05:15:32;;;;;;;2.13;1.23;;;15.90;72.60;;;;;;5112797;28;20066;-39
2021/05/27 05:18:00;;;;;;;1.33;1.05;;;15.90;72.60;;;;;;5112044;28;20055;-41
2021/05/27 05:20:28;;;;;;;0.95;0.90;;;15.90;72.60;;;;;;5113809;28;20152;-43
2021/05/27 05:22:54;;;;;;;1.33;1.23;;;15.90;72.60;;;;;;5117156;28;20092;-42
2021/05/27 05:25:21;;;;;;;1.08;0.95;;;15.90;72.60;;;;;;5117203;28;20066;-45
2021/05/27 05:27:48;;;;;;;1.73;1.40;;;15.90;72.60;;;;;;5116660;28;20044;-45
2021/05/27 05:30:15;;;;;;;2.35;1.20;;;15.90;72.60;;;;;;5116960;28;20047;-46
2021/05/27 05:32:42;;;;;;;2.55;1.42;;;15.90;72.70;;;;;;5116663;28;20039;-46
2021/05/27 05:35:11;;;;;;;1.48;0.98;;;15.90;72.70;;;;;;5116813;28;20051;-47
2021/05/27 05:37:37;;;;;;;1.40;1.20;;;15.90;72.70;;;;;;5116368;28;20748;-47
2021/05/27 05:40:04;;;;;;;1.67;1.25;;;15.90;72.70;;;;;;5116597;28;20071;-47
2021/05/27 05:42:30;;;;;;;1.70;1.20;;;15.90;72.70;;;;;;5116637;28;20483;-49
2021/05/27 05:44:56;;;;;;;1.75;1.20;;;15.90;72.70;;;;;;5116534;28;20036;-47
2021/05/27 05:47:22;;;;;;;1.67;1.17;;;15.90;72.70;;;;;;5116337;28;20414;-46
2021/05/27 05:49:47;;;;;;;1.60;1.17;;;15.90;72.70;;;;;;5115360;28;20540;-43
2021/05/27 05:52:14;;;;;;;2.58;1.38;;;15.90;72.70;;;;;;5126217;27;20415;-42
2021/05/27 05:54:40;;;;;;;1.98;1.25;;;15.90;72.70;;;;;;5136978;27;20043;-43
2021/05/27 05:57:06;;;;;;;1.63;1.30;;;15.90;72.70;;;;;;5136832;27;20504;-44
2021/05/27 05:59:32;;;;;;;2.00;1.30;;;15.90;72.80;;;;;;5134999;27;20183;-40
2021/05/27 06:01:58;;;;;;;1.95;1.30;;;15.90;72.80;;;;;;5135340;27;20126;-40
2021/05/27 06:04:23;;;;;;;1.90;1.30;;;15.90;72.80;;;;;;5115716;28;20051;-44
2021/05/27 06:06:51;;;;;;;1.48;1.17;;;15.90;72.90;;;;;;5115758;28;20054;-47
2021/05/27 06:09:18;;;;;;;2.03;1.40;;;15.90;72.80;;;;;;5116253;28;20043;-47
2021/05/27 06:11:44;;;;;;;1.52;1.42;;;15.90;72.80;;;;;;5116856;28;20047;-47
2021/05/27 06:14:10;;;;;;;1.80;1.10;;;15.90;72.80;;;;;;5115878;28;20047;-50
2021/05/27 06:16:35;;;;;;;1.38;1.10;;;15.90;72.80;;;;;;5115756;28;20050;-50
2021/05/27 06:19:01;;;;;;;1.45;1.30;;;15.90;72.90;;;;;;5115339;28;20126;-48
2021/05/27 06:21:27;;;;;;;2.15;1.30;;;15.90;72.90;;;;;;5119378;27;20699;-45
2021/05/27 06:23:53;;;;;;;1.25;1.13;;;15.90;72.90;;;;;;5118646;27;20077;-50
2021/05/27 06:26:19;;;;;;;2.20;1.30;;;15.90;73.00;;;;;;5115780;28;20051;-50
2021/05/27 06:28:44;;;;;;;1.40;1.10;;;15.90;73.10;;;;;;5115643;28;20567;-47
2021/05/27 06:31:11;;;;;;;2.08;1.30;;;15.90;72.90;;;;;;5115016;28;20518;-46
2021/05/27 06:33:36;;;;;;;1.30;1.00;;;15.90;72.90;;;;;;5115835;28;20185;-48
2021/05/27 06:36:03;;;;;;;1.45;1.15;;;15.90;72.90;;;;;;5115027;28;20122;-50
2021/05/27 06:38:31;;;;;;;1.85;1.27;;;15.90;72.90;;;;;;5115578;28;20048;-46
2021/05/27 06:40:57;;;;;;;2.47;1.40;;;15.90;72.90;;;;;;5115291;28;20399;-46
2021/05/27 06:43:23;;;;;;;2.40;1.50;;;15.90;72.90;;;;;;5115332;28;20051;-42
2021/05/27 06:45:49;;;;;;;1.35;1.10;;;15.90;72.90;;;;;;5115394;28;20414;-42
2021/05/27 06:48:14;;;;;;;1.23;1.05;;;15.90;72.90;;;;;;5115132;28;20577;-43
2021/05/27 06:50:40;;;;;;;2.38;1.40;;;15.90;73.00;;;;;;5114510;28;20043;-47
2021/05/27 06:53:07;;;;;;;2.83;1.20;;;15.90;73.00;;;;;;5130039;27;20272;-41
2021/05/27 06:55:34;;;;;;;1.63;1.30;;;15.90;73.00;;;;;;5135877;27;20126;-41
2021/05/27 06:58:00;;;;;;;1.30;1.20;;;15.90;73.00;;;;;;5135362;27;20487;-44
2021/05/27 07:00:28;;;;;;;2.35;1.20;;;15.90;73.00;;;;;;5135459;27;20075;-44
2021/05/27 07:02:55;;;;;;;1.67;1.10;;;15.90;73.10;;;;;;5135460;27;20129;-42
2021/05/27 07:05:21;;;;;;;1.10;0.95;;;15.90;73.10;;;;;;5134738;27;20039;-40
2021/05/27 07:07:48;;;;;;;1.67;0.95;;;15.90;73.10;;;;;;5135020;27;20055;-42
2021/05/27 07:10:17;;;;;;;2.47;1.25;;;15.90;73.10;;;;;;5135467;27;20047;-43
2021/05/27 07:12:52;;;;;;;1.20;0.95;;;15.90;73.10;;;;;;5123664;27;20168;-45
2021/05/27 07:15:19;;;;;;;1.63;1.20;;;15.90;73.10;;;;;;5110054;28;20058;-42
2021/05/27 07:17:49;;;;;;;2.42;1.95;;;15.90;73.10;;;;;;5107014;28;20510;-42
2021/05/27 07:20:16;;;;;;;1.60;1.20;;;15.90;73.10;;;;;;5113231;28;20043;-43
2021/05/27 07:22:42;;;;;;;2.22;1.33;;;15.90;73.10;;;;;;5113109;28;20123;-43
2021/05/27 07:25:09;;;;;;;1.48;1.20;;;15.90;73.10;;;;;;5113656;28;20106;-43
2021/05/27 07:27:35;;;;;;;1.45;1.20;;;15.90;73.10;;;;;;5114090;28;20112;-42
2021/05/27 07:30:02;;;;;;;2.25;1.27;;;15.90;73.10;;;;;;5113739;28;20434;-44
2021/05/27 07:32:28;;;;;;;1.17;1.00;;;15.90;73.20;;;;;;5113345;28;20044;-40
2021/05/27 07:34:54;;;;;;;1.20;1.10;;;15.90;73.20;;;;;;5112956;28;20062;-44
2021/05/27 07:37:20;;;;;;;0.90;0.85;;;15.90;73.30;;;;;;5113426;28;20502;-39
2021/05/27 07:39:47;;;;;;;1.20;1.10;;;15.90;73.30;;;;;;5114152;28;20503;-43
2021/05/27 07:42:13;;;;;;;1.42;1.17;;;15.90;73.40;;;;;;5094864;28;20124;-45
2021/05/27 07:44:38;;;;;;;2.53;1.17;;;15.90;73.40;;;;;;5130429;27;20047;-44
2021/05/27 07:47:04;;;;;;;1.88;1.10;;;15.90;73.40;;;;;;5130807;27;20442;-42
2021/05/27 07:49:32;;;;;;;1.70;1.20;;;15.90;73.40;;;;;;5113507;28;20412;-42
2021/05/27 07:51:58;;;;;;;1.25;1.00;;;15.90;73.40;;;;;;5113335;28;20054;-42
2021/05/27 07:54:25;;;;;;;1.63;1.15;;;15.90;73.50;;;;;;5133416;27;20059;-39
2021/05/27 07:56:51;;;;;;;1.95;1.15;;;15.90;73.50;;;;;;5134079;27;20503;-44
2021/05/27 07:59:17;;;;;;;1.17;1.08;;;15.90;73.40;;;;;;5130234;27;20119;-44
2021/05/27 08:01:43;;;;;;;1.88;1.23;;;15.90;73.50;;;;;;5113425;28;20080;-43
2021/05/27 08:04:10;;;;;;;0.95;0.95;;;15.90;73.40;;;;;;5113220;28;20082;-41
2021/05/27 08:06:36;;;;;;;1.10;1.00;;;15.90;73.50;;;;;;5113297;28;20056;-44
2021/05/27 08:09:06;;;;;;;1.50;1.10;;;15.90;73.40;;;;;;5112625;28;20457;-46
2021/05/27 08:11:32;;;;;;;2.25;1.20;;;15.90;73.40;;;;;;5113267;28;20097;-45
2021/05/27 08:13:59;;;;;;;1.23;1.05;;;15.90;73.40;;;;;;5112970;28;20444;-41
2021/05/27 08:16:25;;;;;;;1.20;1.00;;;15.90;73.40;;;;;;5113102;28;20044;-43
2021/05/27 08:18:50;;;;;;;1.67;1.08;;;16.10;73.50;;;;;;5112968;28;20436;-38
2021/05/27 08:21:17;;;;;;;1.45;1.30;;;16.00;73.40;;;;;;5112747;28;20052;-45
2021/05/27 08:23:44;;;;;;;1.23;0.90;;;15.90;73.40;;;;;;5112549;28;20066;-46
2021/05/27 08:26:10;;;;;;;1.23;0.98;;;16.00;73.50;;;;;;5112765;28;20419;-42
2021/05/27 08:28:35;;;;;;;1.13;1.02;;;16.00;73.40;;;;;;5112885;28;20043;-46
2021/05/27 08:31:01;;;;;;;1.23;1.10;;;16.00;73.40;;;;;;5113157;28;20044;-47
2021/05/27 08:33:27;;;;;;;2.13;1.17;;;16.00;73.40;;;;;;5113401;28;20079;-48
2021/05/27 08:35:53;;;;;;;1.33;1.13;;;16.00;73.40;;;;;;5117364;27;20403;-48
2021/05/27 08:38:20;;;;;;;1.52;1.05;;;16.00;73.40;;;;;;5133389;27;20599;-48
2021/05/27 08:40:46;;;;;;;1.60;1.17;;;16.00;73.40;;;;;;5133794;27;20043;-51
2021/05/27 08:43:13;;;;;;;2.58;1.17;;;16.00;73.30;;;;;;5104616;27;20044;-50
2021/05/27 08:45:41;;;;;;;1.35;1.00;;;16.00;73.30;;;;;;5112109;28;20051;-46
2021/05/27 08:48:10;;;;;;;1.33;1.10;;;16.00;73.30;;;;;;5112453;28;20055;-42
2021/05/27 08:50:41;;;;;;;2.88;1.40;;;16.00;73.30;;;;;;5112231;28;20051;-42
2021/05/27 08:53:06;;;;;;;2.67;1.10;;;15.90;73.20;;;;;;5112153;28;20048;-43
2021/05/27 08:55:33;;;;;;;2.42;1.38;;;16.00;73.30;;;;;;5111955;28;20050;-47
2021/05/27 08:57:59;;;;;;;1.70;1.23;;;16.00;73.30;;;;;;5112287;28;20044;-48
2021/05/27 09:00:25;;;;;;;1.17;1.08;;;16.00;73.20;;;;;;5112098;28;20195;-46
2021/05/27 09:03:01;;;;;;;2.55;1.42;;;16.00;73.30;;;;;;5112314;28;20146;-44
2021/05/27 09:05:32;;;;;;;2.08;1.52;;;16.00;73.20;;;;;;5112095;28;20059;-43
2021/05/27 09:08:01;;;;;;;2.05;1.15;;;16.00;73.20;;;;;;5103659;28;20047;-41
2021/05/27 09:10:48;;;;;;;7.20;3.17;;;16.00;73.20;;;;;;5110373;28;20042;-37
2021/05/27 09:13:17;;;;;;;11.68;2.70;;;16.00;72.70;;;;;;5112740;28;20051;-47
2021/05/27 09:15:45;;;;;;;8.05;2.65;;;15.70;73.00;;;;;;5111969;28;20047;-44
2021/05/27 09:18:11;;;;;;;6.75;2.55;;;15.70;73.10;;;;;;5112225;28;20054;-47
2021/05/27 09:20:38;;;;;;;9.77;3.08;;;15.70;73.20;;;;;;5111436;28;20047;-46
2021/05/27 09:23:10;;;;;;;9.05;3.78;;;15.70;73.30;;;;;;5112038;28;20047;-44
2021/05/27 09:25:39;;;;;;;10.15;2.72;;;15.70;73.40;;;;;;5111857;28;20043;-39
2021/05/27 09:28:07;;;;;;;6.90;3.45;;;15.70;74.00;;;;;;5112126;28;20051;-45
2021/05/27 09:31:00;;;;;;;9.38;3.03;;;15.70;73.40;;;;;;5111774;28;20491;-48
2021/05/27 09:33:36;;;;;;;7.13;2.85;;;15.80;73.50;;;;;;5112125;28;20105;-44
2021/05/27 09:36:04;;;;;;;8.23;2.88;;;15.80;73.50;;;;;;5111852;28;20442;-47
2021/05/27 09:38:33;;;;;;;7.15;2.38;;;15.80;73.50;;;;;;5112093;28;20059;-43
2021/05/27 09:40:59;;;;;;;6.88;2.83;;;15.80;73.50;;;;;;5111341;28;20105;-42
2021/05/27 09:43:25;;;;;;;10.95;2.63;;;15.80;73.50;;;;;;5112188;28;20423;-49
2021/05/27 09:46:06;;;;;;;7.03;2.70;;;15.90;73.60;;;;;;5093696;28;20608;-42
2021/05/27 09:48:33;;;;;;;5.95;2.53;;;15.90;73.50;;;;;;5112561;28;20126;-44
2021/05/27 09:51:01;;;;;;;5.70;2.42;;;15.90;73.50;;;;;;5111842;28;20044;-41
2021/05/27 09:53:30;;;;;;;7.47;2.50;;;15.90;73.50;;;;;;5122851;28;20058;-38
2021/05/27 09:55:58;;;;;;;5.35;2.20;;;15.90;73.50;;;;;;5132080;28;20078;-38
2021/05/27 09:58:24;;;;;;;6.75;2.70;;;15.90;73.50;;;;;;5132446;28;20055;-46
2021/05/27 10:00:51;;;;;;;8.45;2.67;;;15.90;73.50;;;;;;5132235;28;20039;-41
2021/05/27 10:03:31;;;;;;;5.30;2.35;;;16.00;73.50;;;;;;5132273;28;20426;-45
2021/05/27 10:06:09;;;;;;;10.68;2.42;;;16.00;73.40;;;;;;5132584;27;20047;-42
2021/05/27 10:08:51;;;;;;;5.10;2.25;;;16.00;73.40;;;;;;5136214;27;20043;-41
2021/05/27 10:11:19;;;;;;;11.52;2.78;;;16.00;73.40;;;;;;5135672;27;20378;-38
2021/05/27 10:13:45;;;;;;;4.65;2.10;;;16.00;73.40;;;;;;5135623;27;20043;-41
2021/05/27 10:16:14;;;;;;;9.82;2.80;;;16.00;73.40;;;;;;5135649;27;20043;-37
2021/05/27 10:18:41;;;;;;;6.10;2.13;;;16.00;73.40;;;;;;5117374;27;20070;-36
2021/05/27 10:21:08;;;;;;;5.97;1.92;;;16.00;73.40;;;;;;5123114;27;20138;-39
2021/05/27 10:23:34;;;;;;;4.90;2.03;;;15.90;73.50;;;;;;5115531;28;20074;-41
2021/05/27 10:26:00;;;;;;;4.95;2.25;;;16.00;73.50;;;;;;5133563;27;20043;-36
2021/05/27 10:28:26;;;;;;;4.40;1.90;;;16.00;73.60;;;;;;5133760;27;20051;-38
2021/05/27 10:30:53;;;;;;;4.68;1.88;;;16.00;73.70;;;;;;5132371;27;20183;-39
2021/05/27 10:33:20;;;;;;;5.80;2.10;;;16.00;73.70;;;;;;5128822;27;20070;-39
2021/05/27 10:35:48;;;;;;;3.78;1.83;;;16.00;74.50;;;;;;5129177;27;20465;-42
2021/05/27 10:38:15;;;;;;;3.97;1.92;;;16.00;73.80;;;;;;5135229;27;20495;-36
2021/05/27 10:40:42;;;;;;;6.25;2.38;;;16.10;74.00;;;;;;5135787;27;20043;-36
2021/05/27 10:43:12;;;;;;;3.70;1.73;;;16.00;74.00;;;;;;5134200;27;20047;-42
2021/05/27 10:46:04;;;;;;;4.78;1.70;;;16.00;74.00;;;;;;5135473;27;20043;-42
2021/05/27 10:48:47;;;;;;;4.00;1.70;;;16.00;74.70;;;;;;5135452;27;20146;-44
2021/05/27 10:51:32;;;;;;;7.18;1.70;;;16.00;74.10;;;;;;5134392;27;20435;-39
2021/05/27 10:54:00;;;;;;;3.92;1.60;;;16.00;74.10;;;;;;5134944;27;20081;-41
2021/05/27 10:56:35;;;;;;;3.58;1.60;;;16.10;74.10;;;;;;5133636;27;20054;-39
2021/05/27 10:59:01;;;;;;;5.60;1.92;;;16.10;74.20;;;;;;5134857;27;20108;-48
2021/05/27 11:01:34;;;;;;;3.05;1.40;;;16.00;74.10;;;;;;5134325;27;20074;-46
2021/05/27 11:04:21;;;;;;;3.67;2.05;;;16.00;74.20;;;;;;5134185;27;20051;-46
2021/05/27 11:06:49;;;;;;;4.25;2.03;;;16.10;74.20;;;;;;5135068;27;20043;-44
2021/05/27 11:09:20;;;;;;;3.47;1.73;;;16.10;74.30;;;;;;5133771;27;20051;-43
2021/05/27 11:11:48;;;;;;;6.38;1.90;;;16.10;74.20;;;;;;5133808;27;20170;-45
2021/05/27 11:14:16;;;;;;;3.33;1.63;;;16.10;74.20;;;;;;5133901;27;20047;-48
2021/05/27 11:17:02;;;;;;;2.58;1.20;;;16.10;74.20;;;;;;5134631;27;20050;-46
2021/05/27 11:22:36;;;;;;;3.55;1.70;;;16.10;74.40;;;;;;5132834;27;20051;-44
2021/05/27 11:27:35;;;;;;;2.38;1.38;;;16.10;74.20;;;;;;5133674;27;20045;-50
2021/05/27 11:30:25;;;;;;;2.47;1.40;;;16.10;74.20;;;;;;5129141;27;20065;-45
2021/05/27 11:32:58;;;;;;;3.42;1.50;;;16.10;74.20;;;;;;5125115;27;20187;-49
2021/05/27 11:35:29;;;;;;;3.33;1.45;;;16.10;74.20;;;;;;5134112;27;20417;-47
2021/05/27 11:37:55;;;;;;;2.97;1.38;;;16.10;74.10;;;;;;5133278;27;20113;-50
2021/05/27 11:40:30;;;;;;;3.58;1.73;;;16.10;74.10;;;;;;5132796;27;20043;-50
2021/05/27 11:42:57;;;;;;;4.80;1.63;;;16.10;74.10;;;;;;5122744;27;20117;-44
2021/05/27 11:45:25;;;;;;;3.25;1.90;;;16.10;74.10;;;;;;5127003;27;20088;-48
2021/05/27 11:48:20;;;;;;;2.80;1.10;;;16.20;74.20;;;;;;5134553;27;20138;-47
2021/05/27 11:50:46;;;;;;;2.60;1.40;;;16.20;74.10;;;;;;5124176;27;20048;-45
2021/05/27 11:53:12;;;;;;;4.75;1.60;;;16.10;74.00;;;;;;5130530;27;20058;-51
2021/05/27 11:55:38;;;;;;;2.45;1.27;;;16.10;74.00;;;;;;5134472;27;20047;-48
2021/05/27 11:58:05;;;;;;;1.30;1.20;;;16.10;74.30;;;;;;5121709;27;20043;-44
2021/05/27 12:00:32;;;;;;;3.63;1.60;;;16.10;74.00;;;;;;5119085;27;20046;-36
2021/05/27 12:03:02;;;;;;;3.42;1.48;;;16.20;74.00;;;;;;5127017;27;20092;-42
2021/05/27 12:05:29;;;;;;;1.88;1.10;;;16.20;74.00;;;;;;5133537;27;20134;-44
2021/05/27 12:07:56;;;;;;;3.33;1.48;;;16.20;74.00;;;;;;5132129;27;20050;-40
2021/05/27 12:10:22;;;;;;;2.72;1.10;;;16.20;73.90;;;;;;5133375;27;20035;-46
2021/05/27 12:12:48;;;;;;;2.33;1.40;;;16.20;73.90;;;;;;5119925;27;20047;-41
2021/05/27 12:15:15;;;;;;;2.95;1.60;;;16.20;73.90;;;;;;5119885;27;20480;-45
2021/05/27 12:17:45;;;;;;;2.45;1.30;;;16.20;73.90;;;;;;5132833;27;20055;-40
2021/05/27 12:20:18;;;;;;;3.47;1.33;;;16.20;73.80;;;;;;5132808;27;20095;-36
2021/05/27 12:22:56;;;;;;;2.45;1.42;;;16.20;73.80;;;;;;5132980;27;20043;-40
2021/05/27 12:25:27;;;;;;;3.55;1.70;;;16.20;73.70;;;;;;5132567;27;20368;-43
2021/05/27 12:27:58;;;;;;;2.35;1.25;;;16.20;73.70;;;;;;5131678;27;20510;-36
2021/05/27 12:30:26;;;;;;;2.10;1.30;;;16.20;73.70;;;;;;5132199;27;20039;-47
2021/05/27 12:32:53;;;;;;;1.83;1.10;;;16.20;73.70;;;;;;5132371;27;20096;-41
2021/05/27 12:35:30;;;;;;;1.85;1.20;;;16.20;73.70;;;;;;5132045;27;20062;-47
2021/05/27 12:38:00;;;;;;;1.92;1.23;;;16.20;73.60;;;;;;5132340;27;20046;-41
2021/05/27 12:40:29;;;;;;;1.23;1.10;;;16.20;73.60;;;;;;5132573;27;20031;-47
2021/05/27 12:43:00;;;;;;;2.05;1.40;;;16.20;73.60;;;;;;5129919;27;20042;-38
2021/05/27 12:45:38;;;;;;;3.42;1.38;;;16.20;73.50;;;;;;5124320;27;20050;-47
2021/05/27 12:48:14;;;;;;;2.00;1.27;;;16.20;73.50;;;;;;5132790;27;20078;-49
2021/05/27 12:51:03;;;;;;;1.98;1.20;;;16.20;73.50;;;;;;5131458;27;20066;-39
2021/05/27 12:53:32;;;;;;;1.33;1.20;;;16.30;73.50;;;;;;5123113;27;20059;-45
2021/05/27 12:56:30;;;;;;;3.40;1.20;;;16.20;73.40;;;;;;5118607;27;20050;-38
2021/05/27 12:59:17;;;;;;;2.22;1.00;;;16.20;73.40;;;;;;5118390;27;20151;-40
2021/05/27 13:01:50;;;;;;;3.92;1.85;;;16.30;73.50;;;;;;5120549;27;20108;-36